Time;durP1;ratioP1;P1;durP2;ratioP2;P2;SDS_P1;SDS_P2;PMS_P1;PMS_P2;Temp;Humidity;BMP_temperature;BMP_pressure;BME280_temperature;BME280_humidity;BME280_pressure;Samples;Min_cycle;Max_cycle;Signal;HPM_P1;HPM_P2
2022/06/02 00:00:17;;;;;;;18.63;13.10;;;8.10;89.00;;;;;;5000191;28;20151;-81
2022/06/02 00:03:08;;;;;;;18.80;12.80;;;8.10;99.90;;;;;;4977234;28;20044;-81
2022/06/02 00:06:05;;;;;;;16.90;13.77;;;8.20;99.90;;;;;;4997402;28;20050;-81
2022/06/02 00:08:56;;;;;;;18.23;12.73;;;8.10;99.90;;;;;;5004827;28;20046;-81
2022/06/02 00:12:05;;;;;;;22.55;14.15;;;8.00;99.90;;;;;;5001292;28;20064;-82
2022/06/02 00:14:52;;;;;;;19.13;13.57;;;8.00;99.90;;;;;;4985622;28;20084;-82
2022/06/02 00:17:30;;;;;;;18.23;13.77;;;8.00;96.60;;;;;;5001234;28;20600;-81
2022/06/02 00:20:13;;;;;;;19.35;14.18;;;7.90;99.90;;;;;;5002646;28;20678;-82
2022/06/02 00:23:06;;;;;;;17.63;13.65;;;7.90;99.90;;;;;;5002384;28;20537;-81
2022/06/02 00:25:39;;;;;;;21.17;14.52;;;7.90;99.90;;;;;;4973281;28;20061;-81
2022/06/02 00:28:32;;;;;;;22.08;15.95;;;7.80;99.90;;;;;;4972440;28;20049;-81
2022/06/02 00:31:27;;;;;;;19.48;14.32;;;7.80;99.90;;;;;;4972100;28;20581;-81
2022/06/02 00:34:46;;;;;;;25.38;15.52;;;7.80;99.90;;;;;;4974076;28;20046;-81
2022/06/02 00:37:21;;;;;;;22.35;15.00;;;7.70;99.90;;;;;;4947732;28;20043;-81
2022/06/02 00:39:48;;;;;;;23.50;16.15;;;7.70;99.90;;;;;;4921348;28;20054;-82
2022/06/02 00:42:36;;;;;;;23.45;15.18;;;7.70;99.90;;;;;;4974216;28;20113;-82
2022/06/02 00:45:13;;;;;;;22.33;15.30;;;7.70;99.90;;;;;;5000519;28;20093;-82
2022/06/02 00:47:51;;;;;;;22.60;14.90;;;7.70;99.90;;;;;;5003801;28;20039;-82
2022/06/02 00:50:32;;;;;;;25.08;15.93;;;7.70;99.90;;;;;;4974350;28;20050;-82
2022/06/02 00:53:28;;;;;;;19.20;13.45;;;7.60;99.90;;;;;;4976669;28;20034;-81
2022/06/02 00:59:15;;;;;;;24.23;16.38;;;7.60;99.90;;;;;;4972984;28;20050;-82
2022/06/02 01:01:44;;;;;;;29.17;18.88;;;7.60;99.90;;;;;;4987855;28;20106;-82
2022/06/02 01:04:15;;;;;;;28.50;17.98;;;7.70;99.90;;;;;;4974865;28;20123;-82
2022/06/02 01:07:05;;;;;;;25.77;17.50;;;7.70;99.90;;;;;;4972178;28;20371;-82
2022/06/02 01:09:57;;;;;;;32.67;20.10;;;7.70;99.90;;;;;;4989964;28;20053;-82
2022/06/02 01:12:28;;;;;;;28.30;18.95;;;7.70;99.90;;;;;;4967615;28;20494;-82
2022/06/02 01:15:06;;;;;;;31.27;19.58;;;7.60;99.90;;;;;;5002985;28;20042;-81
2022/06/02 01:17:41;;;;;;;29.92;18.85;;;7.60;99.90;;;;;;4982762;28;20263;-82
2022/06/02 01:20:12;;;;;;;30.67;19.83;;;7.70;99.90;;;;;;4972902;28;20035;-82
2022/06/02 01:23:03;;;;;;;28.50;19.17;;;7.60;99.90;;;;;;5001561;28;20045;-82
2022/06/02 01:25:46;;;;;;;32.38;19.15;;;7.60;99.90;;;;;;4985778;28;20114;-82
2022/06/02 01:28:30;;;;;;;29.67;20.40;;;7.60;99.90;;;;;;4999448;28;20049;-82
2022/06/02 01:31:08;;;;;;;35.63;21.30;;;7.60;99.90;;;;;;4970786;28;20133;-82
2022/06/02 01:33:46;;;;;;;31.13;20.08;;;7.60;99.90;;;;;;4969271;28;20306;-82
2022/06/02 01:36:40;;;;;;;33.42;19.50;;;7.60;99.90;;;;;;4971129;28;20046;-82
2022/06/02 01:39:26;;;;;;;31.13;19.83;;;7.60;99.90;;;;;;4950279;28;20047;-82
2022/06/02 01:42:00;;;;;;;30.33;19.35;;;7.60;99.90;;;;;;4977620;28;20165;-82
2022/06/02 01:45:00;;;;;;;30.88;19.77;;;7.70;99.90;;;;;;4993256;28;20054;-81
2022/06/02 01:47:34;;;;;;;29.35;17.80;;;7.60;99.90;;;;;;4972496;28;20462;-82
2022/06/02 01:50:18;;;;;;;31.23;19.00;;;7.70;99.90;;;;;;4979740;28;20055;-82
2022/06/02 01:53:21;;;;;;;29.30;19.02;;;7.60;99.90;;;;;;4977446;28;20437;-82
2022/06/02 01:56:07;;;;;;;28.60;18.40;;;7.50;99.90;;;;;;4978281;28;20359;-82
2022/06/02 01:58:55;;;;;;;30.08;18.83;;;7.50;99.90;;;;;;4988982;28;20068;-82
2022/06/02 02:01:47;;;;;;;26.38;17.35;;;7.50;99.90;;;;;;5005064;28;20603;-81
2022/06/02 02:04:41;;;;;;;27.00;17.88;;;7.40;99.90;;;;;;4976519;28;20701;-82
2022/06/02 02:07:32;;;;;;;29.73;19.38;;;7.40;99.90;;;;;;4995997;28;20422;-82
2022/06/02 02:10:14;;;;;;;26.90;18.85;;;7.40;99.90;;;;;;4971375;28;20351;-82
2022/06/02 02:12:59;;;;;;;29.90;18.25;;;7.50;99.90;;;;;;5003534;28;20038;-82
2022/06/02 02:15:43;;;;;;;28.30;19.30;;;7.40;99.90;;;;;;4990616;28;20133;-82
2022/06/02 02:18:12;;;;;;;30.65;18.20;;;7.40;99.90;;;;;;4970462;28;20082;-82
2022/06/02 02:21:00;;;;;;;29.70;18.42;;;7.30;99.90;;;;;;4974846;28;20479;-82
2022/06/02 02:23:44;;;;;;;33.15;19.30;;;7.20;99.90;;;;;;4992412;28;20042;-81
2022/06/02 02:26:37;;;;;;;30.17;17.45;;;7.20;99.90;;;;;;5000270;28;20043;-82
2022/06/02 02:29:18;;;;;;;21.88;14.90;;;7.10;99.90;;;;;;4973452;28;20512;-82
2022/06/02 02:32:05;;;;;;;27.48;17.50;;;7.00;99.90;;;;;;4987077;28;20544;-82
2022/06/02 02:34:57;;;;;;;29.38;18.40;;;6.90;99.90;;;;;;4974364;28;20450;-81
2022/06/02 02:37:47;;;;;;;29.95;18.65;;;6.90;99.90;;;;;;4956051;28;20529;-82
2022/06/02 02:40:35;;;;;;;31.17;18.73;;;7.00;99.90;;;;;;4987129;28;20301;-82
2022/06/02 02:43:18;;;;;;;26.80;19.02;;;6.90;99.90;;;;;;4978522;28;20496;-82
2022/06/02 02:46:06;;;;;;;26.98;17.83;;;7.00;99.90;;;;;;4988198;28;20062;-81
2022/06/02 02:48:51;;;;;;;34.13;19.25;;;7.00;99.90;;;;;;4984475;28;20426;-81
2022/06/02 02:51:26;;;;;;;27.92;18.67;;;7.00;99.90;;;;;;4992023;28;20129;-82
2022/06/02 02:53:59;;;;;;;;;;;7.00;99.90;;;;;;4994511;28;20574;-82
2022/06/02 02:56:40;;;;;;;30.88;19.15;;;7.00;99.90;;;;;;4989740;28;19925;-81
2022/06/02 02:59:22;;;;;;;30.05;18.40;;;7.00;99.90;;;;;;5004027;28;20115;-81
2022/06/02 03:02:15;;;;;;;32.40;19.90;;;7.00;99.90;;;;;;5007142;28;20049;-82
2022/06/02 03:04:59;;;;;;;26.70;17.98;;;6.90;99.90;;;;;;5003751;28;20031;-81
2022/06/02 03:07:27;;;;;;;28.05;18.38;;;6.90;99.90;;;;;;5003884;28;20073;-81
2022/06/02 03:10:31;;;;;;;28.95;19.48;;;6.90;99.90;;;;;;4973102;28;20026;-82
2022/06/02 03:13:22;;;;;;;34.30;20.30;;;6.90;99.90;;;;;;4971570;28;20060;-81
2022/06/02 03:15:58;;;;;;;32.75;19.73;;;6.90;99.90;;;;;;5003628;28;20042;-82
2022/06/02 03:18:56;;;;;;;32.47;19.90;;;7.00;99.90;;;;;;5001203;28;20039;-81
2022/06/02 03:21:32;;;;;;;29.95;19.73;;;7.00;99.90;;;;;;5003243;28;20571;-81
2022/06/02 03:24:39;;;;;;;35.10;21.05;;;7.00;99.90;;;;;;4972192;28;20084;-82
2022/06/02 03:27:28;;;;;;;35.75;21.48;;;7.10;1.00;;;;;;5000637;28;20034;-82
2022/06/02 03:29:53;;;;;;;34.22;20.35;;;7.10;1.00;;;;;;4999647;28;20092;-81
2022/06/02 03:32:29;;;;;;;30.88;20.45;;;7.10;1.00;;;;;;4969330;28;20038;-82
2022/06/02 03:35:16;;;;;;;36.60;22.38;;;7.10;1.00;;;;;;5002155;28;20042;-81
2022/06/02 03:37:59;;;;;;;35.28;21.92;;;7.10;1.00;;;;;;4972745;28;20042;-82
2022/06/02 03:40:56;;;;;;;36.95;22.73;;;7.10;1.00;;;;;;4998554;28;20038;-82
2022/06/02 03:43:33;;;;;;;33.60;21.23;;;7.20;1.00;;;;;;4976160;28;20162;-81
2022/06/02 03:46:29;;;;;;;36.28;22.50;;;7.30;1.00;;;;;;4990717;28;20140;-81
2022/06/02 03:49:11;;;;;;;30.92;21.00;;;7.30;1.00;;;;;;4985735;28;20721;-82
2022/06/02 03:51:51;;;;;;;30.15;20.35;;;7.30;1.00;;;;;;4973823;28;20057;-81
2022/06/02 03:54:34;;;;;;;34.45;21.17;;;7.40;1.00;;;;;;4976918;28;20128;-82
2022/06/02 03:57:19;;;;;;;28.60;20.42;;;7.40;1.00;;;;;;4986337;28;20038;-81
2022/06/02 03:59:51;;;;;;;32.40;21.27;;;7.40;1.00;;;;;;5002388;28;20141;-81
2022/06/02 04:02:31;;;;;;;31.00;20.92;;;7.40;1.00;;;;;;4984830;28;20074;-82
2022/06/02 04:05:16;;;;;;;32.13;21.55;;;7.50;1.00;;;;;;5005617;28;20168;-82
2022/06/02 04:08:07;;;;;;;28.83;19.77;;;7.50;1.00;;;;;;5001402;28;20464;-81
2022/06/02 04:10:52;;;;;;;31.30;20.52;;;7.60;1.00;;;;;;4992173;28;20490;-82
2022/06/02 04:16:39;;;;;;;32.00;20.33;;;7.70;1.00;;;;;;4977517;28;20065;-82
2022/06/02 04:22:41;;;;;;;26.40;19.35;;;7.80;1.00;;;;;;4972581;28;20054;-82
2022/06/02 04:25:41;;;;;;;25.60;18.50;;;7.90;1.00;;;;;;4989933;28;20034;-82
2022/06/02 04:28:45;;;;;;;25.25;18.23;;;8.00;1.00;;;;;;4986152;28;20058;-81
2022/06/02 04:31:52;;;;;;;24.35;17.48;;;8.10;1.00;;;;;;4989511;28;20068;-81
2022/06/02 04:34:30;;;;;;;21.35;17.02;;;8.30;1.00;;;;;;4986063;28;20042;-82
2022/06/02 04:37:16;;;;;;;22.60;16.10;;;8.30;1.00;;;;;;4973947;28;20037;-81
2022/06/02 04:40:14;;;;;;;19.80;16.20;;;8.50;99.90;;;;;;4973267;28;20042;-81
2022/06/02 04:42:52;;;;;;;21.27;15.70;;;8.60;99.90;;;;;;4991703;28;20501;-81
2022/06/02 04:45:52;;;;;;;21.33;14.68;;;8.70;99.90;;;;;;4975936;28;20117;-81
2022/06/02 04:48:25;;;;;;;19.45;14.75;;;8.80;99.90;;;;;;4962088;28;20444;-81
2022/06/02 04:50:53;;;;;;;18.17;13.10;;;8.90;99.90;;;;;;4999187;28;20129;-81
2022/06/02 04:53:34;;;;;;;16.33;13.40;;;9.00;99.90;;;;;;4976620;28;20082;-81
2022/06/02 04:56:07;;;;;;;16.15;13.80;;;9.10;99.90;;;;;;4989347;28;20915;-81
2022/06/02 04:58:58;;;;;;;17.20;13.10;;;9.20;99.90;;;;;;4987216;28;20045;-81
2022/06/02 05:01:52;;;;;;;13.85;11.98;;;9.30;55.90;;;;;;5000620;28;20066;-81
2022/06/02 05:04:23;;;;;;;17.38;11.82;;;9.40;1.00;;;;;;4999354;28;20050;-81
2022/06/02 05:06:56;;;;;;;14.57;11.93;;;9.50;1.00;;;;;;5001163;28;20041;-81
2022/06/02 05:09:52;;;;;;;14.50;11.15;;;9.70;1.00;;;;;;4973367;28;20425;-81
2022/06/02 05:13:04;;;;;;;13.77;11.38;;;9.80;1.00;;;;;;4969553;28;20228;-81
2022/06/02 05:15:45;;;;;;;13.23;10.00;;;10.00;1.00;;;;;;4983765;28;20061;-81
2022/06/02 05:18:35;;;;;;;12.68;10.07;;;10.10;99.90;;;;;;5007040;28;20042;-81
2022/06/02 05:21:33;;;;;;;12.77;10.00;;;10.20;99.90;;;;;;4976867;28;20511;-81
2022/06/02 05:24:33;;;;;;;11.20;10.05;;;10.20;99.90;;;;;;4973419;28;20038;-81
2022/06/02 05:27:14;;;;;;;12.32;8.63;;;10.40;99.90;;;;;;4970450;28;20105;-81
2022/06/02 05:29:53;;;;;;;12.43;9.35;;;10.50;99.90;;;;;;4969447;28;20215;-81
2022/06/02 05:32:42;;;;;;;10.30;9.05;;;10.60;99.90;;;;;;5002215;28;20122;-81
2022/06/02 05:35:35;;;;;;;12.43;9.70;;;10.80;99.90;;;;;;4977108;28;20055;-81
2022/06/02 05:38:22;;;;;;;8.48;7.63;;;10.90;99.90;;;;;;4978237;28;20109;-81
2022/06/02 05:40:58;;;;;;;15.23;8.32;;;11.00;99.90;;;;;;4981974;28;20050;-81
2022/06/02 05:43:50;;;;;;;9.70;8.38;;;11.10;99.90;;;;;;4985936;28;20053;-82
2022/06/02 05:46:41;;;;;;;8.30;7.50;;;11.20;99.90;;;;;;5002192;28;20046;-81
2022/06/02 05:49:41;;;;;;;10.18;7.63;;;11.30;99.90;;;;;;4999759;28;20074;-81
2022/06/02 05:52:19;;;;;;;7.97;6.95;;;11.40;99.90;;;;;;4969218;28;20046;-81
2022/06/02 05:55:23;;;;;;;8.82;6.55;;;11.50;99.90;;;;;;4973407;28;20042;-81
2022/06/02 05:58:13;;;;;;;8.50;7.15;;;11.50;1.00;;;;;;4971894;28;20037;-82
2022/06/02 06:00:54;;;;;;;7.82;6.90;;;11.70;99.90;;;;;;4972078;28;20441;-81
2022/06/02 06:03:56;;;;;;;9.48;6.55;;;11.80;99.90;;;;;;4972812;28;20041;-81
2022/06/02 06:06:41;;;;;;;7.80;6.93;;;11.90;72.60;;;;;;4984687;28;20046;-81
2022/06/02 06:09:22;;;;;;;7.13;6.43;;;12.00;96.90;;;;;;5004821;28;20053;-81
2022/06/02 06:12:13;;;;;;;8.88;6.65;;;12.00;24.40;;;;;;5008903;28;20184;-81
2022/06/02 06:14:57;;;;;;;7.53;6.05;;;12.20;99.90;;;;;;5011403;28;20054;-81
2022/06/02 06:17:42;;;;;;;7.30;5.95;;;12.20;1.00;;;;;;4981076;28;20381;-81
2022/06/02 06:20:35;;;;;;;6.97;6.28;;;12.30;19.10;;;;;;4996347;28;20050;-81
2022/06/02 06:23:20;;;;;;;7.75;5.60;;;12.40;1.00;;;;;;4999267;28;20134;-81
2022/06/02 06:26:12;;;;;;;6.35;5.70;;;12.50;1.00;;;;;;4986894;28;20048;-81
2022/06/02 06:28:59;;;;;;;7.15;5.53;;;12.50;1.00;;;;;;5008026;28;20062;-81
2022/06/02 06:31:27;;;;;;;5.75;4.50;;;12.70;56.10;;;;;;5006500;28;20216;-81
2022/06/02 06:34:27;;;;;;;6.85;5.05;;;12.70;1.00;;;;;;4985535;28;20053;-81
2022/06/02 06:36:53;;;;;;;5.57;4.70;;;12.90;1.00;;;;;;4999681;28;20391;-81
2022/06/02 06:39:37;;;;;;;5.68;4.20;;;13.00;1.00;;;;;;5009410;28;20077;-80
2022/06/02 06:42:24;;;;;;;5.37;3.73;;;13.20;1.00;;;;;;4986267;28;20127;-81
2022/06/02 06:45:07;;;;;;;5.57;3.70;;;13.20;99.90;;;;;;4994322;28;20337;-81
2022/06/02 06:47:49;;;;;;;5.07;3.55;;;13.20;99.90;;;;;;4988712;28;20049;-81
2022/06/02 06:50:43;;;;;;;6.15;4.07;;;13.20;99.90;;;;;;4979474;28;20370;-81
2022/06/02 06:53:32;;;;;;;6.30;3.75;;;13.10;1.00;;;;;;4999036;28;20041;-81
2022/06/02 06:56:21;;;;;;;5.03;3.75;;;13.40;1.00;;;;;;5009494;28;20108;-81
2022/06/02 06:58:56;;;;;;;4.10;3.05;;;13.70;1.00;;;;;;4985927;28;20050;-81
2022/06/02 07:02:12;;;;;;;4.47;3.28;;;13.70;99.90;;;;;;5011415;28;20050;-80
2022/06/02 07:05:11;;;;;;;4.60;3.30;;;13.50;99.90;;;;;;4964204;28;20054;-80
2022/06/02 07:07:53;;;;;;;4.45;2.33;;;13.60;99.90;;;;;;4983981;28;20209;-80
2022/06/02 07:10:22;;;;;;;4.05;3.30;;;13.70;99.90;;;;;;5006408;28;20077;-80
2022/06/02 07:12:58;;;;;;;3.53;3.22;;;13.80;99.90;;;;;;4982603;28;20038;-80
2022/06/02 07:15:30;;;;;;;3.55;3.15;;;14.30;99.90;;;;;;4982708;28;20037;-80
2022/06/02 07:18:08;;;;;;;2.90;2.38;;;14.00;99.90;;;;;;5015631;28;20145;-80
2022/06/02 07:20:41;;;;;;;2.72;2.35;;;13.80;99.90;;;;;;4982365;28;20157;-80
2022/06/02 07:23:36;;;;;;;3.13;2.38;;;13.80;99.90;;;;;;4986396;28;20044;-80
2022/06/02 07:26:24;;;;;;;4.18;2.40;;;14.10;99.90;;;;;;4996118;28;20452;-80
2022/06/02 07:29:17;;;;;;;4.13;2.60;;;14.20;99.90;;;;;;4985404;28;20050;-80
2022/06/02 07:32:16;;;;;;;3.85;2.25;;;14.30;99.90;;;;;;4985298;28;20159;-81
2022/06/02 07:35:08;;;;;;;7.18;2.65;;;14.30;99.90;;;;;;5003784;28;20046;-80
2022/06/02 07:37:45;;;;;;;3.17;2.40;;;14.50;99.90;;;;;;5002231;28;20570;-80
2022/06/02 07:40:38;;;;;;;4.13;2.40;;;14.30;99.90;;;;;;5008238;28;20049;-81
2022/06/02 07:43:25;;;;;;;4.00;2.05;;;14.40;99.90;;;;;;4992583;28;20042;-80
2022/06/02 07:45:59;;;;;;;5.78;2.10;;;14.40;99.90;;;;;;4964677;28;20417;-80
2022/06/02 07:48:43;;;;;;;3.75;2.40;;;14.60;99.90;;;;;;4960106;28;20049;-80
2022/06/02 07:51:27;;;;;;;4.05;2.20;;;14.50;99.90;;;;;;4978506;28;20391;-80
2022/06/02 07:54:15;;;;;;;5.47;2.53;;;14.80;99.90;;;;;;4963149;28;20055;-80
2022/06/02 07:57:01;;;;;;;3.83;2.33;;;15.00;99.90;;;;;;4993826;28;20418;-80
2022/06/02 07:59:39;;;;;;;3.80;2.42;;;14.60;99.90;;;;;;4994100;28;20092;-80
2022/06/02 08:02:32;;;;;;;3.75;2.33;;;14.40;99.90;;;;;;4979314;28;20132;-80
2022/06/02 08:05:19;;;;;;;4.68;2.38;;;15.00;99.90;;;;;;4985610;28;20481;-80
2022/06/02 08:08:10;;;;;;;5.63;2.65;;;15.30;99.90;;;;;;4994712;28;20297;-80
2022/06/02 08:10:51;;;;;;;2.72;2.17;;;15.10;99.90;;;;;;4987758;28;20046;-80
2022/06/02 08:13:44;;;;;;;3.25;2.53;;;14.80;99.90;;;;;;4966661;28;20054;-80
2022/06/02 08:16:21;;;;;;;2.70;2.40;;;14.80;99.90;;;;;;4992051;28;20054;-81
2022/06/02 08:19:07;;;;;;;4.45;2.25;;;14.60;99.90;;;;;;4962431;28;20069;-80
2022/06/02 08:21:45;;;;;;;3.75;2.47;;;14.70;99.90;;;;;;4963417;28;20362;-81
2022/06/02 08:24:48;;;;;;;4.10;2.08;;;15.10;99.90;;;;;;4969629;28;20045;-80
2022/06/02 08:27:52;;;;;;;2.92;2.20;;;15.00;99.90;;;;;;4962306;28;20050;-81
2022/06/02 08:30:32;;;;;;;3.65;2.50;;;14.70;99.90;;;;;;4960319;28;20469;-80
2022/06/02 08:33:19;;;;;;;3.00;2.40;;;14.70;99.90;;;;;;4964160;28;20070;-80
2022/06/02 08:36:04;;;;;;;4.20;2.60;;;15.10;99.90;;;;;;4985074;28;20101;-80
2022/06/02 08:38:35;;;;;;;5.25;2.20;;;15.50;99.90;;;;;;4983322;28;20046;-79
2022/06/02 08:41:39;;;;;;;4.13;2.20;;;15.60;99.90;;;;;;4966047;28;20193;-80
2022/06/02 08:44:32;;;;;;;4.38;2.20;;;15.10;99.90;;;;;;5008245;28;20049;-80
2022/06/02 08:47:07;;;;;;;2.00;1.73;;;15.10;99.90;;;;;;5007405;28;20034;-80
2022/06/02 08:49:45;;;;;;;2.70;2.03;;;15.10;99.90;;;;;;5014519;28;20409;-80
2022/06/02 08:52:38;;;;;;;4.40;1.98;;;15.50;99.90;;;;;;4994450;28;20057;-80
2022/06/02 08:55:26;;;;;;;3.47;2.10;;;15.40;99.90;;;;;;5003246;28;20050;-80
2022/06/02 08:57:57;;;;;;;3.15;1.90;;;15.80;99.90;;;;;;4980357;28;20046;-80
2022/06/02 09:00:53;;;;;;;3.40;2.03;;;15.70;99.90;;;;;;5002723;28;20050;-80
2022/06/02 09:03:56;;;;;;;3.20;2.15;;;15.40;99.90;;;;;;4968265;28;20516;-80
2022/06/02 09:06:24;;;;;;;3.95;1.80;;;16.10;99.90;;;;;;5010703;28;20042;-80
2022/06/02 09:08:54;;;;;;;3.08;2.10;;;16.30;99.90;;;;;;5000688;28;20089;-81
2022/06/02 09:11:47;;;;;;;4.03;2.00;;;16.00;99.90;;;;;;4997204;28;20046;-81
2022/06/02 09:14:24;;;;;;;3.40;2.65;;;15.90;99.90;;;;;;4978746;28;20050;-81
2022/06/02 09:17:22;;;;;;;2.92;1.98;;;15.60;99.90;;;;;;4995004;28;20038;-80
2022/06/02 09:20:08;;;;;;;2.72;2.13;;;16.20;99.90;;;;;;4994920;28;20050;-81
2022/06/02 09:22:48;;;;;;;3.28;1.80;;;16.80;99.90;;;;;;4996578;28;20180;-80
2022/06/02 09:25:49;;;;;;;3.58;2.00;;;16.10;99.90;;;;;;4983140;28;20148;-81
2022/06/02 09:28:42;;;;;;;3.72;1.90;;;15.80;99.90;;;;;;4979749;28;20532;-80
2022/06/02 09:31:23;;;;;;;3.60;1.92;;;16.00;99.90;;;;;;5007646;28;20270;-80
2022/06/02 09:34:07;;;;;;;2.33;1.80;;;16.10;99.90;;;;;;5002158;28;20104;-80
2022/06/02 09:36:57;;;;;;;2.97;1.83;;;16.70;99.90;;;;;;4971392;28;20514;-80
2022/06/02 09:39:44;;;;;;;3.00;1.80;;;17.10;92.90;;;;;;4977771;28;20350;-80
2022/06/02 09:42:19;;;;;;;3.53;2.03;;;17.70;98.70;;;;;;5009993;28;20062;-81
2022/06/02 09:45:09;;;;;;;3.28;1.80;;;17.60;86.90;;;;;;4973834;28;20525;-81
2022/06/02 09:47:54;;;;;;;3.00;1.75;;;17.10;92.70;;;;;;4991681;28;20034;-80
2022/06/02 09:50:50;;;;;;;3.83;2.07;;;16.30;90.80;;;;;;4982964;28;20541;-81
2022/06/02 09:53:31;;;;;;;3.17;2.08;;;16.20;99.90;;;;;;5001327;28;20039;-80
2022/06/02 09:56:28;;;;;;;5.57;2.20;;;16.70;99.90;;;;;;4976225;28;20065;-81
2022/06/02 09:59:38;;;;;;;3.55;1.90;;;17.00;94.10;;;;;;5013963;28;20038;-80
2022/06/02 10:02:40;;;;;;;4.18;2.00;;;16.90;99.90;;;;;;4963888;28;20112;-80
2022/06/02 10:05:24;;;;;;;2.92;1.98;;;17.10;99.90;;;;;;4983637;28;20046;-81
2022/06/02 10:08:04;;;;;;;2.67;1.80;;;17.20;95.30;;;;;;4981203;28;20228;-80
2022/06/02 10:10:39;;;;;;;2.00;1.80;;;17.30;69.40;;;;;;4986053;28;20477;-81
2022/06/02 10:13:34;;;;;;;3.75;2.30;;;17.50;69.30;;;;;;5007654;28;20038;-81
2022/06/02 10:16:21;;;;;;;4.45;2.03;;;17.80;55.20;;;;;;4981090;28;20038;-80
2022/06/02 10:19:26;;;;;;;2.38;1.67;;;18.20;57.20;;;;;;5005767;28;20744;-80
2022/06/02 10:22:21;;;;;;;3.65;2.03;;;18.80;66.30;;;;;;5009018;28;20630;-80
2022/06/02 10:25:21;;;;;;;5.35;2.28;;;17.70;61.20;;;;;;4981419;28;20098;-80
2022/06/02 10:28:24;;;;;;;2.60;1.77;;;17.40;99.90;;;;;;5014224;28;20607;-80
2022/06/02 10:31:05;;;;;;;3.28;1.95;;;17.20;99.90;;;;;;5010661;28;20034;-80
2022/06/02 10:33:52;;;;;;;2.95;2.08;;;17.30;77.30;;;;;;5008718;28;20037;-80
2022/06/02 10:36:51;;;;;;;5.28;2.22;;;17.70;73.70;;;;;;4981165;28;20073;-81
2022/06/02 10:39:29;;;;;;;4.20;1.90;;;17.70;72.20;;;;;;4983065;28;20293;-81
2022/06/02 10:42:18;;;;;;;4.53;1.73;;;18.10;73.20;;;;;;5010861;28;20508;-81
2022/06/02 10:45:14;;;;;;;3.35;1.60;;;18.00;55.00;;;;;;4978333;28;20406;-81
2022/06/02 10:47:59;;;;;;;4.63;2.10;;;17.20;36.90;;;;;;4961739;28;20083;-81
2022/06/02 10:51:02;;;;;;;3.25;2.05;;;17.30;46.70;;;;;;4975585;28;20046;-80
2022/06/02 10:54:06;;;;;;;3.03;1.83;;;17.20;42.80;;;;;;4998931;28;20054;-81
2022/06/02 10:56:50;;;;;;;2.80;1.80;;;18.20;96.40;;;;;;4989181;28;20124;-81
2022/06/02 10:59:34;;;;;;;2.88;1.90;;;17.60;30.30;;;;;;5002147;28;20053;-81
2022/06/02 11:02:15;;;;;;;2.80;2.15;;;18.00;50.60;;;;;;4992643;28;20335;-81
2022/06/02 11:04:47;;;;;;;2.85;2.00;;;17.70;66.80;;;;;;4971661;28;20045;-81
2022/06/02 11:07:31;;;;;;;3.13;1.90;;;17.60;67.20;;;;;;4991077;28;20042;-81
2022/06/02 11:10:35;;;;;;;2.20;1.85;;;17.70;65.30;;;;;;5000850;28;20038;-81
2022/06/02 11:13:00;;;;;;;2.25;1.80;;;17.70;52.40;;;;;;4979977;28;20082;-80
2022/06/02 11:15:44;;;;;;;2.92;1.80;;;18.50;44.00;;;;;;4998279;28;20093;-81
2022/06/02 11:18:41;;;;;;;3.10;1.88;;;19.00;36.10;;;;;;4992880;28;20058;-81
2022/06/02 11:21:44;;;;;;;2.58;1.67;;;19.20;26.90;;;;;;4979639;28;20041;-81
2022/06/02 11:24:29;;;;;;;3.13;1.70;;;18.60;16.40;;;;;;4978648;28;20039;-81
2022/06/02 11:26:57;;;;;;;2.47;1.80;;;18.30;29.20;;;;;;4981787;28;20224;-81
2022/06/02 11:29:59;;;;;;;2.08;1.50;;;18.90;29.70;;;;;;4978705;28;20045;-80
2022/06/02 11:32:41;;;;;;;1.90;1.40;;;18.70;6.30;;;;;;4986520;28;20540;-81
2022/06/02 11:35:44;;;;;;;2.28;1.67;;;18.80;5.10;;;;;;4974891;28;20091;-81
2022/06/02 11:38:42;;;;;;;2.63;1.92;;;18.30;3.00;;;;;;4977758;28;20553;-81
2022/06/02 11:41:31;;;;;;;3.47;2.20;;;17.90;25.00;;;;;;4951650;28;20186;-81
2022/06/02 11:43:59;;;;;;;4.18;2.00;;;18.70;15.40;;;;;;4977501;28;20046;-81
2022/06/02 11:46:29;;;;;;;4.18;2.00;;;19.80;26.70;;;;;;5004443;28;20312;-81
2022/06/02 11:49:07;;;;;;;3.45;2.03;;;20.50;28.10;;;;;;5001726;28;20093;-81
2022/06/02 11:51:54;;;;;;;6.22;3.30;;;19.90;21.20;;;;;;4977480;28;20073;-81
2022/06/02 11:55:04;;;;;;;2.50;1.92;;;19.20;23.30;;;;;;4991093;28;20065;-81
2022/06/02 11:58:07;;;;;;;3.60;1.98;;;18.40;4.60;;;;;;4961321;28;20099;-81
2022/06/02 12:00:58;;;;;;;5.25;2.00;;;18.50;10.50;;;;;;4973891;28;20050;-81
2022/06/02 12:03:55;;;;;;;3.05;1.80;;;17.80;14.90;;;;;;4982223;28;20045;-81
2022/06/02 12:06:48;;;;;;;3.95;2.20;;;18.00;10.90;;;;;;4970289;28;20034;-81
2022/06/02 12:09:38;;;;;;;2.10;1.85;;;19.00;21.30;;;;;;4967127;28;20105;-81
2022/06/02 12:12:22;;;;;;;4.57;2.15;;;18.90;13.40;;;;;;4987504;28;20129;-81
2022/06/02 12:15:17;;;;;;;2.80;1.92;;;19.30;13.80;;;;;;4972822;28;20513;-81
2022/06/02 12:18:19;;;;;;;2.45;1.58;;;19.30;6.40;;;;;;5004852;28;20526;-81
2022/06/02 12:21:04;;;;;;;3.58;1.90;;;19.50;3.70;;;;;;4990969;28;20081;-81
2022/06/02 12:23:50;;;;;;;2.93;1.53;;;20.40;1.00;;;;;;4979040;28;20053;-81
2022/06/02 12:26:19;;;;;;;5.53;2.03;;;20.00;1.00;;;;;;4969047;28;20074;-81
2022/06/02 12:29:04;;;;;;;2.72;2.25;;;18.90;1.00;;;;;;4992870;28;20085;-82
2022/06/02 12:32:00;;;;;;;2.78;2.03;;;19.40;2.70;;;;;;4998009;28;20458;-82
2022/06/02 12:34:59;;;;;;;3.13;2.13;;;19.50;19.00;;;;;;5013102;28;20524;-81
2022/06/02 12:37:56;;;;;;;3.08;1.85;;;18.70;1.00;;;;;;4984338;28;20254;-81
2022/06/02 12:40:28;;;;;;;4.25;2.20;;;18.90;5.90;;;;;;5010265;28;20501;-81
2022/06/02 12:43:02;;;;;;;3.45;2.05;;;18.60;33.60;;;;;;5013876;28;20101;-81
2022/06/02 12:45:43;;;;;;;4.97;2.25;;;18.80;13.80;;;;;;4999136;28;20121;-81
2022/06/02 12:48:50;;;;;;;3.45;2.10;;;19.40;20.30;;;;;;4976232;28;20049;-81
2022/06/02 12:51:34;;;;;;;4.10;2.10;;;19.50;8.90;;;;;;5002387;28;20132;-81
2022/06/02 12:54:28;;;;;;;2.42;1.88;;;19.00;1.00;;;;;;4986636;28;20406;-82
2022/06/02 12:57:31;;;;;;;3.05;2.10;;;19.90;9.10;;;;;;4987200;28;20046;-81
2022/06/02 13:00:13;;;;;;;3.65;2.30;;;20.80;7.60;;;;;;4999669;28;20042;-81
2022/06/02 13:02:57;;;;;;;2.67;2.20;;;19.90;4.40;;;;;;4973005;28;20042;-81
2022/06/02 13:05:47;;;;;;;2.70;2.07;;;19.80;3.60;;;;;;4976844;28;20118;-81
2022/06/02 13:08:48;;;;;;;4.40;2.17;;;20.60;15.10;;;;;;4969454;28;20812;-81
2022/06/02 13:11:39;;;;;;;2.85;2.00;;;19.60;1.00;;;;;;5002971;28;20057;-82
2022/06/02 13:14:22;;;;;;;4.05;2.13;;;19.30;1.00;;;;;;4969520;28;20457;-81
2022/06/02 13:17:15;;;;;;;4.05;1.90;;;20.30;2.30;;;;;;5000340;28;20070;-81
2022/06/02 13:19:50;;;;;;;5.10;2.20;;;20.60;1.00;;;;;;4979779;28;20107;-81
2022/06/02 13:22:16;;;;;;;3.03;1.70;;;21.20;1.80;;;;;;4970017;28;20049;-81
2022/06/02 13:25:00;;;;;;;3.45;1.90;;;21.00;1.00;;;;;;5004212;28;20047;-81
2022/06/02 13:28:07;;;;;;;2.40;1.83;;;20.40;1.00;;;;;;5000553;28;20281;-81
2022/06/02 13:30:32;;;;;;;2.17;1.83;;;20.00;1.00;;;;;;4991129;28;20129;-81
2022/06/02 13:33:13;;;;;;;2.85;1.50;;;20.80;1.00;;;;;;5011125;28;20441;-81
2022/06/02 13:36:03;;;;;;;2.47;1.63;;;19.30;1.00;;;;;;4986849;28;20042;-81
2022/06/02 13:38:46;;;;;;;3.75;1.90;;;19.90;1.00;;;;;;4988169;28;20039;-81
2022/06/02 13:41:47;;;;;;;4.30;2.05;;;19.10;1.00;;;;;;5016273;28;20065;-81
2022/06/02 13:44:42;;;;;;;2.50;1.92;;;19.70;1.00;;;;;;4984555;28;20133;-81
2022/06/02 13:47:45;;;;;;;3.17;1.80;;;20.50;1.00;;;;;;5003214;28;20058;-81
2022/06/02 13:50:20;;;;;;;2.80;1.88;;;20.60;1.00;;;;;;4987252;28;20034;-82
2022/06/02 13:52:57;;;;;;;3.15;1.73;;;20.30;1.00;;;;;;5015712;28;20516;-81
2022/06/02 13:58:34;;;;;;;4.25;1.90;;;20.60;1.00;;;;;;4990029;28;20750;-81
2022/06/02 14:01:45;;;;;;;2.63;1.65;;;20.40;1.00;;;;;;4985093;28;20030;-81
2022/06/02 14:04:32;;;;;;;2.92;1.83;;;20.40;1.00;;;;;;4983566;28;20065;-82
2022/06/02 14:07:18;;;;;;;2.33;1.83;;;20.30;1.00;;;;;;4986641;28;20045;-81
2022/06/02 14:10:18;;;;;;;3.05;1.70;;;20.10;1.00;;;;;;4985992;28;20289;-81
2022/06/02 14:13:04;;;;;;;2.53;1.80;;;20.70;1.00;;;;;;4977281;28;20038;-82
2022/06/02 14:15:59;;;;;;;4.03;1.70;;;20.80;1.00;;;;;;4964440;28;20061;-82
2022/06/02 14:19:01;;;;;;;2.80;2.10;;;20.90;1.00;;;;;;4964591;28;20560;-81
2022/06/02 14:21:56;;;;;;;3.08;1.80;;;21.20;1.00;;;;;;4969809;28;20395;-81
2022/06/02 14:24:51;;;;;;;;;;;20.90;1.00;;;;;;4975631;28;20474;-81
2022/06/02 14:27:36;;;;;;;3.90;1.70;;;22.90;1.00;;;;;;4965525;28;20019;-81
2022/06/02 14:30:09;;;;;;;3.17;1.80;;;21.90;1.00;;;;;;5000503;28;20085;-81
2022/06/02 14:32:49;;;;;;;1.90;1.60;;;20.50;1.00;;;;;;4987423;28;20100;-81
2022/06/02 14:35:44;;;;;;;4.00;1.90;;;21.80;1.00;;;;;;5016211;28;20118;-81
2022/06/02 14:38:21;;;;;;;2.65;1.63;;;21.80;1.00;;;;;;5011008;28;20123;-81